Terminal Aerodrome Forecast
Issued by NWS

Home | Current Version | Previous Version | Graphics & Text | Print | Product List | Glossary On
Versions: 1 2 3 4 5 6 7 8 9 10 11 12 13 14 15 16 17
000
FTUS43 KBIS 181100
TAFJMS
TAF
KJMS 181130Z 1812/1912 26009KT P6SM SCT040
     FM181700 30010KT P6SM VCTS BKN040CB
     FM182100 33012G18KT P6SM VCTS BKN050CB
     FM190000 34005KT P6SM SCT050=

USA.gov is the U.S. government's official web portal to all federal, state and local government web resources and services.